createdAt,value
2018-11-14T00:00:24.796Z,103138.34
2018-11-14T00:01:24.370Z,103138.51
2018-11-14T00:02:23.354Z,103138.17
2018-11-14T00:03:25.157Z,103137.50
2018-11-14T00:04:33.646Z,103136.60
2018-11-14T00:05:25.648Z,103136.43
2018-11-14T00:06:27.248Z,103135.91
2018-11-14T00:07:27.906Z,103135.82
2018-11-14T00:08:28.763Z,103135.91
2018-11-14T00:09:29.312Z,103136.33
2018-11-14T00:10:28.789Z,103136.72
2018-11-14T00:11:30.157Z,103137.41
2018-11-14T00:12:30.753Z,103137.30
2018-11-14T00:13:31.342Z,103138.13
2018-11-14T00:14:31.719Z,103138.19
2018-11-14T00:15:32.621Z,103138.63
2018-11-14T00:16:33.427Z,103140.12
2018-11-14T00:17:33.984Z,103140.76
2018-11-14T00:18:34.588Z,103141.86
2018-11-14T00:19:35.154Z,103142.92
2018-11-14T00:20:34.427Z,103143.99
2018-11-14T00:21:35.827Z,103144.82
2018-11-14T00:22:36.235Z,103145.92
2018-11-14T00:23:36.693Z,103146.56
2018-11-14T00:24:37.194Z,103148.39
2018-11-14T00:25:36.576Z,103149.33
2018-11-14T00:26:39.640Z,103150.66
2018-11-14T00:27:38.111Z,103151.55
2018-11-14T00:28:39.703Z,103152.45
2018-11-14T00:29:40.609Z,103153.55
2018-11-14T00:30:39.752Z,103154.80
2018-11-14T00:31:41.156Z,103156.13
2018-11-14T00:32:41.256Z,103157.46
2018-11-14T00:33:41.758Z,103158.96
2018-11-14T00:34:41.075Z,103160.22
2018-11-14T00:35:41.539Z,103161.63
2018-11-14T00:36:43.062Z,103163.06
2018-11-14T00:37:43.479Z,103164.45
2018-11-14T00:38:44.118Z,103166.02
2018-11-14T00:39:44.525Z,103167.01
2018-11-14T00:40:45.000Z,103167.24
2018-11-14T00:41:45.355Z,103167.64
2018-11-14T00:42:45.991Z,103168.30
2018-11-14T00:43:45.552Z,103168.56
2018-11-14T00:44:47.382Z,103169.31
2018-11-14T00:45:47.905Z,103169.30
2018-11-14T00:46:48.428Z,103169.68
2018-11-14T00:47:48.864Z,103169.61
2018-11-14T00:48:49.321Z,103170.36
2018-11-14T00:49:49.795Z,103170.74
2018-11-14T00:50:50.041Z,103170.73
2018-11-14T00:51:49.483Z,103170.91
2018-11-14T00:52:51.214Z,103171.41
2018-11-14T00:52:59.374Z,103174.53
2018-11-14T00:54:00.959Z,103174.11
2018-11-14T00:55:01.296Z,103174.37
2018-11-14T00:56:01.843Z,103174.30
2018-11-14T00:57:02.530Z,103174.12
2018-11-14T00:58:02.936Z,103174.74
2018-11-14T00:59:03.360Z,103175.06
2018-11-14T01:00:03.831Z,103174.98
2018-11-14T01:01:03.239Z,103175.41
2018-11-14T01:02:04.706Z,103175.94
2018-11-14T01:03:05.178Z,103176.03
2018-11-14T01:04:04.784Z,103176.52
2018-11-14T01:05:06.506Z,103176.63
2018-11-14T01:06:07.147Z,103176.84
2018-11-14T01:07:07.650Z,103176.27
2018-11-14T01:08:07.999Z,103176.53
2018-11-14T01:09:09.379Z,103176.25
2018-11-14T01:10:09.226Z,103176.56
2018-11-14T01:11:09.794Z,103176.91
2018-11-14T01:12:10.494Z,103177.09
2018-11-14T01:13:09.712Z,103177.23
2018-11-14T01:14:09.907Z,103176.91
2018-11-14T01:15:11.448Z,103176.64
2018-11-14T01:16:11.914Z,103175.95
2018-11-14T01:17:12.333Z,103175.38
2018-11-14T01:18:12.745Z,103174.78
2018-11-14T01:19:13.104Z,103173.92
2018-11-14T01:20:13.583Z,103173.00
2018-11-14T01:21:14.031Z,103172.65
2018-11-14T01:22:14.413Z,103172.39
2018-11-14T01:23:15.212Z,103171.45
2018-11-14T01:24:15.716Z,103170.60
2018-11-14T01:25:16.023Z,103170.59
2018-11-14T01:26:16.438Z,103170.23
2018-11-14T01:27:16.884Z,103170.32
2018-11-14T01:28:17.648Z,103169.72
2018-11-14T01:29:18.064Z,103169.17
2018-11-14T01:30:18.622Z,103168.77
2018-11-14T01:31:19.329Z,103168.39
2018-11-14T01:32:19.666Z,103168.48
2018-11-14T01:33:20.238Z,103168.53
2018-11-14T01:34:20.677Z,103167.77
2018-11-14T01:35:21.196Z,103167.75
2018-11-14T01:36:21.687Z,103167.55
2018-11-14T01:37:22.235Z,103167.64
2018-11-14T01:38:22.730Z,103167.44
2018-11-14T01:38:31.212Z,103167.84
2018-11-14T01:39:32.038Z,103167.84
2018-11-14T01:40:32.627Z,103168.00
2018-11-14T01:41:33.185Z,103168.00
2018-11-14T01:42:33.767Z,103168.00
2018-11-14T01:43:34.392Z,103168.50
2018-11-14T01:44:34.815Z,103168.27
2018-11-14T01:45:35.672Z,103168.34
2018-11-14T01:46:36.051Z,103168.18
2018-11-14T01:47:36.513Z,103167.75
2018-11-14T01:48:36.094Z,103167.31
2018-11-14T01:49:37.444Z,103166.82
2018-11-14T01:50:37.862Z,103166.15
2018-11-14T01:51:38.229Z,103165.48
2018-11-14T01:52:38.796Z,103165.38
2018-11-14T01:53:39.182Z,103164.05
2018-11-14T01:54:39.806Z,103163.38
2018-11-14T01:55:40.424Z,103162.19
2018-11-14T01:56:40.838Z,103161.52
2018-11-14T01:57:41.206Z,103161.08
2018-11-14T01:58:41.700Z,103160.58
2018-11-14T01:59:42.319Z,103160.08
2018-11-14T02:00:42.732Z,103158.41
2018-11-14T02:01:42.855Z,103157.41
2018-11-14T02:02:43.416Z,103156.72
2018-11-14T02:03:43.853Z,103155.13
2018-11-14T02:04:45.389Z,103154.20
2018-11-14T02:05:45.123Z,103153.27
2018-11-14T02:06:46.057Z,103152.23
2018-11-14T02:07:46.453Z,103151.89
2018-11-14T02:08:47.115Z,103151.39
2018-11-14T02:09:47.676Z,103150.49
2018-11-14T02:10:48.151Z,103150.33
2018-11-14T02:11:48.484Z,103149.39
2018-11-14T02:12:48.807Z,103149.39
2018-11-14T02:13:48.282Z,103149.06
2018-11-14T02:14:49.643Z,103148.72
2018-11-14T02:15:50.301Z,103148.65
2018-11-14T02:16:50.471Z,103148.65
2018-11-14T02:17:51.096Z,103147.98
2018-11-14T02:18:51.633Z,103147.55
2018-11-14T02:19:52.081Z,103147.23
2018-11-14T02:20:52.446Z,103146.66
2018-11-14T02:21:52.733Z,103146.81
2018-11-14T02:22:53.112Z,103146.23
2018-11-14T02:23:53.492Z,103146.40
2018-11-14T02:24:54.103Z,103147.02
2018-11-14T02:25:02.569Z,103148.66
2018-11-14T02:26:04.003Z,103148.56
2018-11-14T02:27:04.466Z,103149.06
2018-11-14T02:28:05.208Z,103150.00
2018-11-14T02:29:06.081Z,103150.33
2018-11-14T02:30:06.501Z,103150.77
2018-11-14T02:31:07.060Z,103151.09
2018-11-14T02:32:07.475Z,103151.00
2018-11-14T02:33:08.093Z,103151.67
2018-11-14T02:34:08.717Z,103152.17
2018-11-14T02:35:09.094Z,103152.41
2018-11-14T02:36:09.686Z,103153.25
2018-11-14T02:37:10.238Z,103153.27
2018-11-14T02:38:10.695Z,103153.98
2018-11-14T02:39:11.172Z,103154.06
2018-11-14T02:40:11.578Z,103154.05
2018-11-14T02:41:12.246Z,103154.64
2018-11-14T02:42:12.767Z,103154.63
2018-11-14T02:43:13.419Z,103154.70
2018-11-14T02:44:14.028Z,103155.02
2018-11-14T02:45:14.584Z,103154.66
2018-11-14T02:46:15.203Z,103155.41
2018-11-14T02:47:15.954Z,103155.39
2018-11-14T02:48:16.666Z,103155.28
2018-11-14T02:49:17.643Z,103155.53
2018-11-14T02:50:18.178Z,103155.11
2018-11-14T02:51:18.722Z,103154.52
2018-11-14T02:52:18.864Z,103153.90
2018-11-14T02:53:18.163Z,103153.72
2018-11-14T02:54:19.530Z,103154.13
2018-11-14T02:55:19.874Z,103153.52
2018-11-14T02:56:20.393Z,103153.00
2018-11-14T02:57:20.941Z,103152.73
2018-11-14T02:58:21.618Z,103152.64
2018-11-14T02:59:21.921Z,103152.63
2018-11-14T03:00:22.793Z,103152.51
2018-11-14T03:01:23.410Z,103152.02
2018-11-14T03:02:23.184Z,103151.73
2018-11-14T03:03:24.181Z,103151.31
2018-11-14T03:04:24.641Z,103151.32
2018-11-14T03:05:25.087Z,103150.53
2018-11-14T03:06:25.668Z,103150.11
2018-11-14T03:07:26.176Z,103149.78
2018-11-14T03:08:26.602Z,103149.25
2018-11-14T03:09:26.949Z,103148.69
2018-11-14T03:10:27.498Z,103148.85
2018-11-14T03:11:27.941Z,103148.42
2018-11-14T03:11:36.285Z,103142.88
2018-11-14T03:12:37.875Z,103142.28
2018-11-14T03:13:37.135Z,103142.61
2018-11-14T03:14:38.566Z,103142.28
2018-11-14T03:15:38.973Z,103141.86
2018-11-14T03:16:39.563Z,103141.94
2018-11-14T03:17:39.998Z,103141.17
2018-11-14T03:18:40.645Z,103140.65
2018-11-14T03:19:41.165Z,103139.72
2018-11-14T03:20:40.514Z,103139.36
2018-11-14T03:21:42.017Z,103138.54
2018-11-14T03:22:42.684Z,103138.18
2018-11-14T03:23:43.032Z,103138.36
2018-11-14T03:24:43.499Z,103138.00
2018-11-14T03:25:43.886Z,103137.50
2018-11-14T03:26:44.234Z,103137.57
2018-11-14T03:27:45.056Z,103137.55
2018-11-14T03:28:45.714Z,103138.23
2018-11-14T03:29:46.218Z,103138.56
2018-11-14T03:30:45.279Z,103139.05
2018-11-14T03:31:46.682Z,103139.28
2018-11-14T03:32:47.147Z,103139.20
2018-11-14T03:33:47.962Z,103139.77
2018-11-14T03:34:48.661Z,103140.20
2018-11-14T03:35:49.316Z,103140.78
2018-11-14T03:36:49.725Z,103140.53
2018-11-14T03:37:50.204Z,103140.77
2018-11-14T03:38:50.646Z,103140.31
2018-11-14T03:39:51.052Z,103140.42
2018-11-14T03:40:51.751Z,103140.73
2018-11-14T03:41:51.088Z,103140.57
2018-11-14T03:42:52.739Z,103140.21
2018-11-14T03:43:53.027Z,103140.55
2018-11-14T03:44:53.411Z,103140.20
2018-11-14T03:45:53.802Z,103140.11
2018-11-14T03:46:54.316Z,103140.09
2018-11-14T03:47:54.881Z,103139.83
2018-11-14T03:48:54.924Z,103139.56
2018-11-14T03:49:55.325Z,103139.84
2018-11-14T03:50:55.764Z,103139.58
2018-11-14T03:51:56.202Z,103139.22
2018-11-14T03:52:56.802Z,103139.22
2018-11-14T03:53:57.539Z,103139.48
2018-11-14T03:54:57.899Z,103138.98
2018-11-14T03:55:58.304Z,103138.83
2018-11-14T03:56:58.699Z,103138.49
2018-11-14T03:57:59.506Z,103138.31
2018-11-14T03:58:59.949Z,103137.67
2018-11-14T04:00:00.357Z,103137.27
2018-11-14T04:00:08.432Z,103130.98
2018-11-14T04:01:09.837Z,103130.32
2018-11-14T04:02:09.892Z,103129.65
2018-11-14T04:03:10.453Z,103129.41
2018-11-14T04:04:10.904Z,103129.06
2018-11-14T04:05:11.527Z,103128.76
2018-11-14T04:06:11.845Z,103128.35
2018-11-14T04:07:12.057Z,103128.25
2018-11-14T04:08:12.757Z,103127.77
2018-11-14T04:09:12.208Z,103127.52
2018-11-14T04:10:12.916Z,103127.28
2018-11-14T04:11:14.279Z,103127.30
2018-11-14T04:12:14.684Z,103126.97
2018-11-14T04:13:15.229Z,103126.16
2018-11-14T04:14:15.795Z,103125.93
2018-11-14T04:15:16.206Z,103125.52
2018-11-14T04:16:16.545Z,103125.20
2018-11-14T04:17:16.898Z,103124.78
2018-11-14T04:18:17.710Z,103124.27
2018-11-14T04:19:18.231Z,103123.53
2018-11-14T04:20:18.662Z,103123.12
2018-11-14T04:21:19.095Z,103122.95
2018-11-14T04:22:19.633Z,103122.72
2018-11-14T04:23:20.239Z,103122.89
2018-11-14T04:24:20.754Z,103122.38
2018-11-14T04:25:21.335Z,103121.62
2018-11-14T04:26:21.800Z,103121.45
2018-11-14T04:27:22.399Z,103121.35
2018-11-14T04:28:23.240Z,103120.33
2018-11-14T04:29:23.860Z,103120.24
2018-11-14T04:30:23.835Z,103119.73
2018-11-14T04:31:24.311Z,103119.38
2018-11-14T04:32:24.669Z,103119.36
2018-11-14T04:33:25.141Z,103119.17
2018-11-14T04:34:26.102Z,103118.82
2018-11-14T04:35:26.598Z,103118.64
2018-11-14T04:36:26.982Z,103118.55
2018-11-14T04:37:27.675Z,103118.13
2018-11-14T04:38:28.102Z,103116.87
2018-11-14T04:39:28.676Z,103116.34
2018-11-14T04:40:29.121Z,103115.51
2018-11-14T04:41:28.570Z,103114.74
2018-11-14T04:42:30.039Z,103113.91
2018-11-14T04:43:30.651Z,103112.81
2018-11-14T04:44:31.114Z,103111.88
2018-11-14T04:45:31.651Z,103110.61
2018-11-14T04:46:33.118Z,103109.88
2018-11-14T04:47:32.587Z,103109.11
2018-11-14T04:47:40.989Z,103088.38
2018-11-14T04:48:42.323Z,103088.28
2018-11-14T04:49:42.958Z,103088.12
2018-11-14T04:50:43.268Z,103087.76
2018-11-14T04:51:43.621Z,103087.53
2018-11-14T04:52:44.218Z,103086.93
2018-11-14T04:53:44.655Z,103086.77
2018-11-14T04:54:45.404Z,103086.42
2018-11-14T04:55:45.920Z,103086.09
2018-11-14T04:56:46.359Z,103086.92
2018-11-14T04:57:46.771Z,103087.26
2018-11-14T04:58:47.695Z,103088.19
2018-11-14T04:59:48.174Z,103088.52
2018-11-14T05:00:48.552Z,103089.29
2018-11-14T05:01:48.940Z,103090.05
2018-11-14T05:02:49.328Z,103091.22
2018-11-14T05:03:49.968Z,103092.42
2018-11-14T05:04:50.436Z,103093.41
2018-11-14T05:05:51.057Z,103093.84
2018-11-14T05:06:51.522Z,103094.94
2018-11-14T05:07:51.960Z,103096.03
2018-11-14T05:08:52.411Z,103096.45
2018-11-14T05:09:52.822Z,103096.64
2018-11-14T05:10:53.236Z,103097.00
2018-11-14T05:11:53.610Z,103097.52
2018-11-14T05:12:54.120Z,103097.53
2018-11-14T05:13:53.590Z,103097.78
2018-11-14T05:14:54.998Z,103098.21
2018-11-14T05:15:55.589Z,103098.53
2018-11-14T05:16:54.898Z,103098.73
2018-11-14T05:17:56.293Z,103099.05
2018-11-14T05:18:57.721Z,103099.31
2018-11-14T05:19:57.146Z,103099.52
2018-11-14T05:20:57.550Z,103099.17
2018-11-14T05:21:57.915Z,103098.92
2018-11-14T05:22:58.448Z,103098.84
2018-11-14T05:23:58.911Z,103098.29
2018-11-14T05:24:59.684Z,103097.71
2018-11-14T05:25:59.972Z,103097.30
2018-11-14T05:27:00.446Z,103096.80
2018-11-14T05:28:01.177Z,103095.55
2018-11-14T05:29:01.674Z,103094.23
2018-11-14T05:30:02.158Z,103093.08
2018-11-14T05:31:02.719Z,103092.24
2018-11-14T05:32:03.317Z,103090.68
2018-11-14T05:33:03.019Z,103089.52
2018-11-14T05:34:04.742Z,103088.21
2018-11-14T05:34:24.753Z,103072.61
2018-11-14T05:35:25.423Z,103072.45
2018-11-14T05:36:26.096Z,103071.95
2018-11-14T05:37:26.615Z,103071.78
2018-11-14T05:38:27.293Z,103071.55
2018-11-14T05:39:27.159Z,103071.05
2018-11-14T05:40:29.075Z,103071.05
2018-11-14T05:41:29.110Z,103071.05
2018-11-14T05:42:29.659Z,103070.55
2018-11-14T05:43:30.339Z,103070.60
2018-11-14T05:44:30.767Z,103070.20
2018-11-14T05:45:31.335Z,103069.38
2018-11-14T05:46:30.656Z,103069.11
2018-11-14T05:47:32.077Z,103069.04
2018-11-14T05:48:32.544Z,103068.30
2018-11-14T05:49:33.009Z,103068.05
2018-11-14T05:50:33.779Z,103067.71
2018-11-14T05:51:34.394Z,103067.53
2018-11-14T05:52:35.287Z,103067.13
2018-11-14T05:53:35.882Z,103066.63
2018-11-14T05:54:36.775Z,103066.72
2018-11-14T05:55:37.576Z,103066.70
2018-11-14T05:56:38.065Z,103066.14
2018-11-14T05:57:38.702Z,103065.56
2018-11-14T05:58:39.611Z,103064.98
2018-11-14T05:59:40.185Z,103064.55
2018-11-14T06:00:40.729Z,103064.73
2018-11-14T06:01:41.292Z,103064.89
2018-11-14T06:02:41.890Z,103064.66
2018-11-14T06:03:42.379Z,103064.75
2018-11-14T06:04:42.967Z,103064.81
2018-11-14T06:05:43.462Z,103064.23
2018-11-14T06:06:42.782Z,103063.66
2018-11-14T06:07:44.405Z,103063.25
2018-11-14T06:08:44.971Z,103062.32
2018-11-14T06:09:45.470Z,103062.48
2018-11-14T06:10:45.921Z,103062.16
2018-11-14T06:11:46.675Z,103062.32
2018-11-14T06:12:46.209Z,103062.59
2018-11-14T06:13:48.006Z,103062.64
2018-11-14T06:14:48.356Z,103062.64
2018-11-14T06:15:49.210Z,103063.67
2018-11-14T06:16:49.623Z,103064.61
2018-11-14T06:17:49.977Z,103065.17
2018-11-14T06:18:50.556Z,103066.11
2018-11-14T06:19:51.055Z,103066.70
2018-11-14T06:20:51.743Z,103067.53
2018-11-14T06:23:49.124Z,103078.50
2018-11-14T06:24:48.595Z,103078.11
2018-11-14T06:25:50.281Z,103078.11
2018-11-14T06:26:50.599Z,103078.17
2018-11-14T06:27:51.549Z,103077.58
2018-11-14T06:28:52.984Z,103077.58
2018-11-14T06:29:52.642Z,103077.32
2018-11-14T06:30:52.011Z,103076.98
2018-11-14T06:31:52.580Z,103076.74
2018-11-14T06:32:54.027Z,103076.00
2018-11-14T06:33:54.410Z,103075.98
2018-11-14T06:34:54.814Z,103075.51
2018-11-14T06:35:55.485Z,103075.26
2018-11-14T06:36:56.062Z,103075.44
2018-11-14T06:37:56.461Z,103075.52
2018-11-14T06:38:57.114Z,103075.95
2018-11-14T06:39:57.574Z,103076.14
2018-11-14T06:40:58.029Z,103077.06
2018-11-14T06:41:58.788Z,103077.31
2018-11-14T06:42:59.220Z,103077.73
2018-11-14T06:43:59.540Z,103077.86
2018-11-14T06:44:59.927Z,103078.45
2018-11-14T06:46:00.085Z,103078.96
2018-11-14T06:47:00.527Z,103078.54
2018-11-14T06:48:01.173Z,103078.55
2018-11-14T06:49:33.480Z,103081.50
2018-11-14T06:50:35.050Z,103081.23
2018-11-14T06:51:35.849Z,103081.23
2018-11-14T06:52:36.444Z,103081.84
2018-11-14T06:53:36.939Z,103081.16
2018-11-14T06:54:37.422Z,103081.00
2018-11-14T06:55:37.932Z,103080.83
2018-11-14T06:56:38.428Z,103080.56
2018-11-14T06:57:39.065Z,103080.50
2018-11-14T06:58:39.683Z,103080.67
2018-11-14T06:59:39.164Z,103080.23
2018-11-14T07:00:39.507Z,103079.91
2018-11-14T07:01:41.057Z,103079.91
2018-11-14T07:02:41.560Z,103080.08
2018-11-14T07:03:41.984Z,103079.91
2018-11-14T07:04:42.385Z,103079.91
2018-11-14T07:05:42.857Z,103080.08
2018-11-14T07:06:42.589Z,103080.23
2018-11-14T07:07:44.024Z,103080.74
2018-11-14T07:08:44.526Z,103081.51
2018-11-14T07:09:45.331Z,103082.02
2018-11-14T07:10:45.759Z,103082.91
2018-11-14T07:11:45.177Z,103083.84
2018-11-14T07:12:46.435Z,103084.25
2018-11-14T07:13:46.840Z,103085.19
2018-11-14T07:14:47.378Z,103085.52
2018-11-14T07:15:47.385Z,103086.03
2018-11-14T07:16:47.865Z,103086.45
2018-11-14T07:17:48.600Z,103086.89
2018-11-14T07:18:47.993Z,103087.90
2018-11-14T07:19:49.518Z,103089.12
2018-11-14T07:20:49.932Z,103090.73
2018-11-14T07:21:50.382Z,103092.34
2018-11-14T07:22:50.854Z,103093.95
2018-11-14T07:23:51.334Z,103095.02
2018-11-14T07:24:50.755Z,103096.45
2018-11-14T07:25:52.449Z,103097.39
2018-11-14T07:26:54.606Z,103098.72
2018-11-14T07:27:53.385Z,103099.75
2018-11-14T07:28:53.764Z,103100.91
2018-11-14T07:29:54.240Z,103101.84
2018-11-14T07:30:54.608Z,103102.45
2018-11-14T07:31:55.099Z,103103.14
2018-11-14T07:32:55.536Z,103103.80
2018-11-14T07:33:55.908Z,103103.74
2018-11-14T07:34:56.367Z,103104.26
2018-11-14T07:35:56.778Z,103103.94
2018-11-14T07:36:57.597Z,103103.84
2018-11-14T07:37:58.273Z,103103.78
2018-11-14T07:38:57.905Z,103103.11
2018-11-14T07:39:59.361Z,103102.81
2018-11-14T07:40:07.728Z,103092.81
2018-11-14T07:41:08.552Z,103091.88
2018-11-14T07:42:09.006Z,103092.05
2018-11-14T07:43:09.358Z,103092.38
2018-11-14T07:44:09.739Z,103092.22
2018-11-14T07:45:10.128Z,103092.46
2018-11-14T07:46:10.880Z,103092.20
2018-11-14T07:47:11.385Z,103092.61
2018-11-14T07:48:11.772Z,103092.02
2018-11-14T07:49:12.343Z,103091.75
2018-11-14T07:50:12.085Z,103091.00
2018-11-14T07:51:12.525Z,103090.67
2018-11-14T07:52:13.970Z,103090.34
2018-11-14T07:53:14.438Z,103089.58
2018-11-14T07:54:14.894Z,103089.81
2018-11-14T07:55:15.475Z,103089.25
2018-11-14T07:56:15.833Z,103089.08
2018-11-14T07:57:16.242Z,103088.81
2018-11-14T07:58:16.835Z,103088.73
2018-11-14T07:59:17.301Z,103088.56
2018-11-14T08:00:17.739Z,103088.56
2018-11-14T08:01:18.644Z,103088.59
2018-11-14T08:02:19.237Z,103088.15
2018-11-14T08:03:18.511Z,103087.81
2018-11-14T08:04:20.031Z,103087.31
2018-11-14T08:05:20.636Z,103087.14
2018-11-14T08:06:21.261Z,103086.64
2018-11-14T08:07:21.695Z,103086.40
2018-11-14T08:08:22.309Z,103085.72
2018-11-14T08:09:21.626Z,103085.05
2018-11-14T08:10:23.003Z,103084.81
2018-11-14T08:11:23.346Z,103084.88
2018-11-14T08:12:23.982Z,103084.80
2018-11-14T08:13:24.545Z,103084.99
2018-11-14T08:14:24.974Z,103085.58
2018-11-14T08:15:25.031Z,103085.56
2018-11-14T08:16:25.644Z,103085.76
2018-11-14T08:17:26.062Z,103085.91
2018-11-14T08:18:26.910Z,103085.94
2018-11-14T08:19:27.574Z,103085.85
2018-11-14T08:20:27.953Z,103085.59
2018-11-14T08:21:28.719Z,103085.18
2018-11-14T08:22:29.152Z,103085.86
2018-11-14T08:23:29.693Z,103085.78
2018-11-14T08:24:30.090Z,103085.95
2018-11-14T08:25:30.587Z,103085.73
2018-11-14T08:26:31.049Z,103086.08
2018-11-14T08:27:31.509Z,103086.56
2018-11-14T08:27:39.923Z,103090.66
2018-11-14T08:28:41.306Z,103089.90
2018-11-14T08:29:41.870Z,103089.66
2018-11-14T08:30:42.318Z,103088.88
2018-11-14T08:31:41.571Z,103088.30
2018-11-14T08:32:43.093Z,103087.46
2018-11-14T08:33:43.614Z,103087.22
2018-11-14T08:34:44.103Z,103086.53
2018-11-14T08:35:44.764Z,103086.22
2018-11-14T08:36:45.419Z,103084.94
2018-11-14T08:37:46.158Z,103084.89
2018-11-14T08:38:46.586Z,103084.39
2018-11-14T08:39:47.028Z,103083.80
2018-11-14T08:40:47.632Z,103083.72
2018-11-14T08:41:47.153Z,103083.73
2018-11-14T08:42:48.729Z,103082.97
2018-11-14T08:43:49.192Z,103082.72
2018-11-14T08:44:49.629Z,103082.73
2018-11-14T08:45:50.215Z,103082.91
2018-11-14T08:46:50.617Z,103082.66
2018-11-14T08:47:51.169Z,103082.25
2018-11-14T08:48:51.590Z,103081.92
2018-11-14T08:49:52.099Z,103081.92
2018-11-14T08:50:52.787Z,103081.69
2018-11-14T08:51:53.527Z,103081.53
2018-11-14T08:52:54.007Z,103082.03
2018-11-14T08:53:54.398Z,103082.14
2018-11-14T08:54:54.633Z,103082.31
2018-11-14T08:55:54.800Z,103081.98
2018-11-14T08:56:55.451Z,103081.83
2018-11-14T08:57:56.043Z,103082.23
2018-11-14T08:58:56.584Z,103082.08
2018-11-14T08:59:57.168Z,103081.35
2018-11-14T09:00:58.571Z,103081.16
2018-11-14T09:01:58.040Z,103081.11
2018-11-14T09:02:58.525Z,103081.09
2018-11-14T09:03:58.848Z,103081.17
2018-11-14T09:04:58.291Z,103081.03
2018-11-14T09:05:59.745Z,103080.84
2018-11-14T09:07:00.208Z,103079.94
2018-11-14T09:08:00.231Z,103079.52
2018-11-14T09:09:00.878Z,103079.52
2018-11-14T09:10:01.430Z,103078.77
2018-11-14T09:11:01.900Z,103079.09
2018-11-14T09:12:01.602Z,103078.75
2018-11-14T09:13:03.426Z,103078.95
2018-11-14T09:14:02.977Z,103079.44
2018-11-14T09:15:04.603Z,103079.72
2018-11-14T09:16:03.902Z,103080.04
2018-11-14T09:17:05.283Z,103080.29
2018-11-14T09:17:27.392Z,103090.47
2018-11-14T09:18:27.511Z,103089.91
2018-11-14T09:19:28.025Z,103089.80
2018-11-14T09:20:28.451Z,103089.06
2018-11-14T09:21:29.853Z,103089.41
2018-11-14T09:22:30.375Z,103089.23
2018-11-14T09:23:31.110Z,103089.41
2018-11-14T09:24:31.558Z,103089.14
2018-11-14T09:25:32.181Z,103089.14
2018-11-14T09:26:32.659Z,103089.22
2018-11-14T09:27:32.994Z,103089.23
2018-11-14T09:28:33.819Z,103089.55
2018-11-14T09:29:34.272Z,103090.06
2018-11-14T09:30:34.674Z,103090.80
2018-11-14T09:31:35.565Z,103090.97
2018-11-14T09:32:35.978Z,103091.14
2018-11-14T09:33:36.373Z,103091.81
2018-11-14T09:34:36.794Z,103092.66
2018-11-14T09:35:36.158Z,103093.23
2018-11-14T09:36:37.582Z,103093.58
2018-11-14T09:37:38.182Z,103093.82
2018-11-14T09:38:38.639Z,103094.23
2018-11-14T09:39:39.141Z,103094.24
2018-11-14T09:40:39.620Z,103094.31
2018-11-14T09:41:39.001Z,103094.39
2018-11-14T09:42:40.326Z,103094.84
2018-11-14T09:43:40.884Z,103094.23
2018-11-14T09:44:40.421Z,103093.80
2018-11-14T09:45:41.334Z,103094.31
2018-11-14T09:46:42.797Z,103093.91
2018-11-14T09:47:43.178Z,103093.81
2018-11-14T09:48:44.075Z,103094.06
2018-11-14T09:49:44.477Z,103094.06
2018-11-14T09:50:44.989Z,103094.73
2018-11-14T09:51:45.647Z,103095.41
2018-11-14T09:52:46.162Z,103095.31
2018-11-14T09:53:45.995Z,103095.48
2018-11-14T09:54:47.374Z,103095.59
2018-11-14T09:55:48.220Z,103095.20
2018-11-14T09:56:48.737Z,103095.44
2018-11-14T09:57:48.022Z,103095.11
2018-11-14T09:58:49.616Z,103094.92
2018-11-14T09:59:48.950Z,103095.10
2018-11-14T10:00:50.479Z,103095.18
2018-11-14T10:01:50.862Z,103095.62
2018-11-14T10:02:51.675Z,103095.36
2018-11-14T10:03:51.021Z,103095.27
2018-11-14T10:04:51.828Z,103095.34
2018-11-14T10:05:53.480Z,103095.34
2018-11-14T10:06:53.823Z,103094.84
2018-11-14T10:07:54.300Z,103095.11
2018-11-14T10:08:53.650Z,103094.83
2018-11-14T10:09:55.067Z,103094.25
2018-11-14T10:10:55.876Z,103093.42
2018-11-14T10:11:55.467Z,103093.34
2018-11-14T10:12:56.902Z,103092.74
2018-11-14T10:13:06.244Z,103095.45
2018-11-14T10:14:06.026Z,103094.52
2018-11-14T10:15:05.414Z,103094.42
2018-11-14T10:16:06.844Z,103093.09
2018-11-14T10:17:07.304Z,103092.08
2018-11-14T10:18:07.772Z,103090.98
2018-11-14T10:19:08.133Z,103089.80
2018-11-14T10:20:08.419Z,103089.30
2018-11-14T10:21:09.131Z,103088.13
2018-11-14T10:22:07.971Z,103087.05
2018-11-14T10:23:09.422Z,103086.09
2018-11-14T10:24:09.880Z,103085.20
2018-11-14T10:25:10.537Z,103083.94
2018-11-14T10:26:11.212Z,103082.84
2018-11-14T10:27:11.607Z,103081.71
2018-11-14T10:28:12.366Z,103080.62
2018-11-14T10:29:12.974Z,103079.11
2018-11-14T10:30:13.921Z,103078.20
2018-11-14T10:31:14.670Z,103076.70
2018-11-14T10:32:15.243Z,103075.09
2018-11-14T10:33:15.970Z,103074.02
2018-11-14T10:34:16.432Z,103072.51
2018-11-14T10:35:16.948Z,103072.00
2018-11-14T10:36:17.344Z,103070.93
2018-11-14T10:37:17.515Z,103070.42
2018-11-14T10:38:17.845Z,103070.00
2018-11-14T10:39:18.522Z,103069.45
2018-11-14T10:40:19.028Z,103068.78
2018-11-14T10:41:19.626Z,103068.36
2018-11-14T10:42:19.706Z,103068.55
2018-11-14T10:43:20.215Z,103068.05
2018-11-14T10:44:20.776Z,103067.13
2018-11-14T10:45:21.168Z,103066.64
2018-11-14T10:46:20.538Z,103066.31
2018-11-14T10:47:22.007Z,103065.06
2018-11-14T10:48:22.489Z,103064.23
2018-11-14T10:49:23.065Z,103063.14
2018-11-14T10:50:23.482Z,103062.12
2018-11-14T10:51:23.965Z,103060.79
2018-11-14T10:52:24.398Z,103059.19
2018-11-14T10:53:24.852Z,103058.43
2018-11-14T10:54:25.416Z,103056.59
2018-11-14T10:55:25.831Z,103055.09
2018-11-14T10:56:26.509Z,103053.73
2018-11-14T10:57:27.452Z,103052.74
2018-11-14T10:58:27.960Z,103051.40
2018-11-14T10:59:27.489Z,103050.28
2018-11-14T11:00:28.921Z,103049.61
2018-11-14T11:01:29.467Z,103048.78
2018-11-14T11:02:30.121Z,103048.13
2018-11-14T11:02:38.687Z,103033.47
2018-11-14T11:03:40.131Z,103033.47
2018-11-14T11:04:40.677Z,103033.13
2018-11-14T11:05:40.972Z,103032.88
2018-11-14T11:06:41.370Z,103031.95
2018-11-14T11:07:41.759Z,103031.55
2018-11-14T11:08:42.183Z,103031.35
2018-11-14T11:09:41.456Z,103031.20
2018-11-14T11:10:42.875Z,103030.87
2018-11-14T11:11:43.333Z,103030.36
2018-11-14T11:12:43.823Z,103029.35
2018-11-14T11:13:44.712Z,103027.90
2018-11-14T11:14:44.050Z,103027.00
2018-11-14T11:15:45.448Z,103025.48
2018-11-14T11:16:45.840Z,103024.05
2018-11-14T11:17:46.285Z,103022.89
2018-11-14T11:18:46.902Z,103022.03
2018-11-14T11:19:46.591Z,103020.78
2018-11-14T11:20:48.035Z,103019.44
2018-11-14T11:21:48.434Z,103018.59
2018-11-14T11:22:48.926Z,103018.26